Alex Bay, NY

7:04 PM EST on March 01, 2015 (GMT -0500)
APRSWXNET Clayton NY US | Change Station
CLOSE
Current Station
Personal Weather Station
Location: Fishers Landing, NY
Elevation: 303 ft
Nearby Weather Stations

Elev 303 ft 44.26 °N, 76.02 °W | Updated 36 minutes ago

Snow
Snow
25 °F
Feels Like 17 °F
N
7
Wind Variable Wind from SW
Gusts 11.0 mph

Today
High -- | Low -- °F
--% Chance of Precip.
Yesterday
High -- | Low -- °F
Precip. -- in
6:41 AM 5:51 PM
Waxing Gibbous, 88% visible
Pressure 30.19 in
Visibility 3.0 miles
Clouds Overcast 1600 ft
Windchill 17 °F
Dew Point 22 °F
Humidity 87%
Rainfall 0.00 in
Snow Depth Not available.
UV 0 out of 12
Pollen .40 out of 12
Air Quality Not available.
Flu Activity Not available.
METAR KGTB 012358Z AUTO 20006KT 3SM -SN BR OVC016 M05/M06 A3015 RMK AO2 SLP224 P0000 60000 T10491061 11039 21049 57019

More Conditions Fewer Conditions

Pressure 30.19 in
Visibility 3.0 miles
Clouds Overcast 1600 ft
Windchill 17 °F
Dew Point 22 °F
Humidity 87%
Rainfall 0.00 in
Snow Depth Not available.
UV 0 out of 12
Pollen .40 out of 12
Air Quality Not available.
Flu Activity Not available.
METAR KGTB 012358Z AUTO 20006KT 3SM -SN BR OVC016 M05/M06 A3015 RMK AO2 SLP224 P0000 60000 T10491061 11039 21049 57019

More Conditions Fewer Conditions

10-Day Weather Forecast

Almanac

Astronomy

Mar. 01, 2015 Rise Set
Actual Time
Civil Twilight
Nautical Twilight
Astronomical Twilight
Moon
Length of Visible Light
Length of Day
Tomorrow will be .
, % of the Moon is Illuminated

Today's Extremes

State Highs State Lows

Community

WunderPhotos

Upload Photos

1,801,634 photos uploaded!

WunderBlogs® & News

Nearby

Air Quality

  Air Quality AQ Index Pollutant
Not available.

Snow Depth

Station Depth Elevation

Earthquake Activity

City Distance Mag. Time & Date
Minimum magnitude displayed is 2.5.

Coastal Water Temperatures

Place Temperature

Nearby Weather Stations